Time;durP1;ratioP1;P1;durP2;ratioP2;P2;SDS_P1;SDS_P2;PMS_P1;PMS_P2;Temp;Humidity;BMP_temperature;BMP_pressure;BME280_temperature;BME280_humidity;BME280_pressure;Samples;Min_cycle;Max_cycle;Signal;HPM_P1;HPM_P2
2023/05/21 00:02:18;;;;;;;6.55;2.90;;;17.70;57.40;;;;;;5066719;28;20449;-63
2023/05/21 00:04:44;;;;;;;7.03;2.85;;;17.80;57.60;;;;;;5054365;28;20032;-63
2023/05/21 00:07:11;;;;;;;5.95;3.03;;;17.70;57.60;;;;;;5058559;28;20033;-64
2023/05/21 00:09:37;;;;;;;5.68;2.92;;;17.70;57.60;;;;;;5052574;28;20073;-64
2023/05/21 00:12:07;;;;;;;6.20;2.67;;;17.70;57.60;;;;;;5061552;28;20029;-64
2023/05/21 00:14:34;;;;;;;8.07;2.90;;;17.70;57.70;;;;;;5054780;28;20103;-64
2023/05/21 00:16:59;;;;;;;6.93;3.17;;;17.80;57.80;;;;;;5068509;28;20047;-64
2023/05/21 00:19:26;;;;;;;5.72;3.00;;;17.70;57.80;;;;;;5062935;28;20025;-63
2023/05/21 00:21:52;;;;;;;7.32;3.30;;;17.70;57.80;;;;;;5063913;28;20535;-63
2023/05/21 00:24:18;;;;;;;6.47;2.90;;;17.80;58.00;;;;;;5066671;28;20025;-64
2023/05/21 00:26:43;;;;;;;6.95;3.00;;;17.70;58.00;;;;;;5074127;28;20034;-64
2023/05/21 00:29:09;;;;;;;7.03;3.17;;;17.70;58.00;;;;;;5065244;28;20024;-64
2023/05/21 00:31:35;;;;;;;6.13;2.80;;;17.80;58.10;;;;;;5067574;28;20041;-63
2023/05/21 00:34:01;;;;;;;5.72;3.03;;;17.70;58.10;;;;;;5064995;28;20064;-64
2023/05/21 00:36:27;;;;;;;7.40;2.80;;;17.70;58.10;;;;;;5067945;28;20017;-63
2023/05/21 00:38:52;;;;;;;6.18;2.90;;;17.70;58.20;;;;;;5072034;28;20017;-64
2023/05/21 00:41:18;;;;;;;5.63;2.70;;;17.70;58.30;;;;;;5064357;28;20108;-63
2023/05/21 00:43:44;;;;;;;6.00;2.70;;;17.70;58.40;;;;;;5067136;28;20406;-63
2023/05/21 00:46:17;;;;;;;8.35;3.38;;;17.70;58.40;;;;;;5076363;28;20032;-64
2023/05/21 00:48:44;;;;;;;6.43;3.10;;;17.70;58.50;;;;;;5065865;28;20048;-63
2023/05/21 00:51:11;;;;;;;8.60;3.45;;;17.70;58.50;;;;;;5075425;28;20430;-64
2023/05/21 00:53:38;;;;;;;5.90;2.83;;;17.70;58.60;;;;;;5057650;28;20032;-63
2023/05/21 00:56:04;;;;;;;8.25;3.28;;;17.70;58.60;;;;;;5075304;28;20033;-64
2023/05/21 00:58:32;;;;;;;6.78;3.10;;;17.70;58.70;;;;;;5077330;28;20032;-64
2023/05/21 01:01:02;;;;;;;6.15;2.97;;;17.70;58.80;;;;;;5071047;28;20097;-63
2023/05/21 01:03:37;;;;;;;6.28;3.08;;;17.60;58.80;;;;;;5075809;28;20036;-64
2023/05/21 01:06:07;;;;;;;7.07;3.10;;;17.60;58.90;;;;;;5063067;28;20074;-64
2023/05/21 01:08:35;;;;;;;7.10;3.20;;;17.60;59.00;;;;;;5068134;28;20025;-64
2023/05/21 01:11:02;;;;;;;5.53;2.88;;;17.60;59.00;;;;;;5069345;28;20029;-64
2023/05/21 01:13:30;;;;;;;6.25;3.22;;;17.60;59.00;;;;;;5074604;28;20024;-64
2023/05/21 01:16:00;;;;;;;6.63;3.50;;;17.60;59.00;;;;;;5070302;28;20128;-64
2023/05/21 01:18:26;;;;;;;5.88;2.90;;;17.60;59.10;;;;;;5053152;28;20167;-64
2023/05/21 01:20:52;;;;;;;5.85;3.00;;;17.60;59.20;;;;;;5067589;28;20055;-64
2023/05/21 01:23:19;;;;;;;7.30;3.47;;;17.50;59.20;;;;;;5070551;28;20024;-64
2023/05/21 01:25:46;;;;;;;7.88;3.67;;;17.60;59.30;;;;;;5071066;28;20390;-65
2023/05/21 01:28:12;;;;;;;8.23;3.25;;;17.60;59.30;;;;;;5068320;28;20415;-64
2023/05/21 01:30:42;;;;;;;6.30;3.45;;;17.60;59.40;;;;;;5062596;28;20111;-63
2023/05/21 01:33:18;;;;;;;7.13;3.42;;;17.60;59.40;;;;;;5060917;28;20036;-64
2023/05/21 01:35:57;;;;;;;6.68;3.45;;;17.60;59.50;;;;;;5062905;28;20024;-63
2023/05/21 01:38:32;;;;;;;7.13;3.75;;;17.50;59.40;;;;;;5072331;28;20024;-64
2023/05/21 01:41:06;;;;;;;7.32;3.30;;;17.50;59.50;;;;;;5064521;28;20365;-64
2023/05/21 01:43:35;;;;;;;7.97;3.50;;;17.50;59.60;;;;;;5066409;28;20033;-63
2023/05/21 01:46:02;;;;;;;6.38;3.25;;;17.50;59.70;;;;;;5072384;28;20025;-63
2023/05/21 01:48:29;;;;;;;6.35;3.05;;;17.50;59.70;;;;;;5067197;28;20453;-64
2023/05/21 01:51:00;;;;;;;6.40;3.30;;;17.50;59.80;;;;;;5073727;28;20036;-64
2023/05/21 01:53:26;;;;;;;7.10;3.00;;;17.50;59.80;;;;;;5074083;28;20108;-65
2023/05/21 01:55:53;;;;;;;7.82;3.45;;;17.50;59.90;;;;;;5061596;28;20359;-64
2023/05/21 01:58:20;;;;;;;8.95;3.83;;;17.50;60.00;;;;;;5061898;28;20477;-64
2023/05/21 02:00:46;;;;;;;6.88;3.25;;;17.50;60.00;;;;;;5069678;28;20083;-64
2023/05/21 02:03:15;;;;;;;7.63;3.85;;;17.50;60.00;;;;;;5072564;28;20036;-64
2023/05/21 02:05:41;;;;;;;7.25;3.97;;;17.50;60.10;;;;;;5072803;28;20041;-64
2023/05/21 02:08:07;;;;;;;6.10;3.20;;;17.40;60.20;;;;;;5073198;28;20346;-64
2023/05/21 02:10:34;;;;;;;8.00;3.78;;;17.40;60.90;;;;;;5070125;28;20372;-64
2023/05/21 02:13:00;;;;;;;8.18;3.70;;;17.40;60.30;;;;;;5071211;28;20036;-64
2023/05/21 02:15:26;;;;;;;7.22;3.72;;;17.40;60.40;;;;;;5062680;28;20035;-64
2023/05/21 02:17:51;;;;;;;7.38;3.70;;;17.40;60.50;;;;;;5072803;28;20024;-63
2023/05/21 02:20:18;;;;;;;7.60;3.88;;;17.40;60.60;;;;;;5063793;28;20032;-63
2023/05/21 02:22:48;;;;;;;7.03;3.60;;;17.40;60.70;;;;;;5072804;28;20036;-64
2023/05/21 02:25:17;;;;;;;6.60;3.58;;;17.40;60.70;;;;;;5073851;28;20036;-64
2023/05/21 02:27:43;;;;;;;8.18;4.22;;;17.40;60.80;;;;;;5061533;28;20048;-64
2023/05/21 02:30:11;;;;;;;6.88;3.67;;;17.40;60.90;;;;;;5063628;28;20085;-64
2023/05/21 02:32:38;;;;;;;7.93;3.03;;;17.40;60.90;;;;;;5048799;28;20029;-64
2023/05/21 02:35:04;;;;;;;7.85;3.78;;;17.30;60.90;;;;;;5071750;28;20150;-63
2023/05/21 02:37:34;;;;;;;6.65;3.53;;;17.30;61.00;;;;;;5070189;28;20032;-64
2023/05/21 02:40:02;;;;;;;7.63;3.88;;;17.30;61.10;;;;;;5064660;28;20028;-64
2023/05/21 02:42:29;;;;;;;7.18;3.90;;;17.30;61.10;;;;;;5073128;28;20020;-64
2023/05/21 02:44:55;;;;;;;8.35;3.85;;;17.30;61.20;;;;;;5073314;28;20024;-63
2023/05/21 02:47:22;;;;;;;6.82;3.42;;;17.30;61.20;;;;;;5072997;28;20425;-64
2023/05/21 02:49:50;;;;;;;7.53;3.83;;;17.30;61.30;;;;;;5064139;28;20032;-63
2023/05/21 02:52:20;;;;;;;6.90;3.70;;;17.30;61.40;;;;;;5068631;28;20021;-64
2023/05/21 02:54:46;;;;;;;8.20;4.25;;;17.20;61.50;;;;;;5063254;28;20028;-64
2023/05/21 02:57:12;;;;;;;7.18;4.00;;;17.20;61.50;;;;;;5071874;28;20027;-63
2023/05/21 02:59:38;;;;;;;8.70;4.32;;;17.20;61.70;;;;;;5065729;28;20033;-64
2023/05/21 03:02:04;;;;;;;8.23;4.20;;;17.20;61.70;;;;;;5070177;28;20094;-63
2023/05/21 03:04:31;;;;;;;6.72;4.00;;;17.20;61.80;;;;;;5073533;28;20104;-64
2023/05/21 03:07:00;;;;;;;9.68;4.20;;;17.20;61.80;;;;;;5073206;28;20058;-63
2023/05/21 03:09:26;;;;;;;8.82;4.63;;;17.20;61.90;;;;;;5086788;28;20028;-64
2023/05/21 03:11:55;;;;;;;7.43;3.90;;;17.10;61.90;;;;;;5061437;28;20112;-64
2023/05/21 03:14:21;;;;;;;7.70;3.83;;;17.10;62.00;;;;;;5072511;28;20049;-64
2023/05/21 03:16:47;;;;;;;7.72;4.30;;;17.10;62.20;;;;;;5065655;28;20035;-64
2023/05/21 03:19:14;;;;;;;7.55;4.28;;;17.10;62.30;;;;;;5060196;28;20035;-64
2023/05/21 03:21:40;;;;;;;8.45;4.68;;;17.10;62.30;;;;;;5068268;28;20029;-63
2023/05/21 03:24:06;;;;;;;6.93;4.10;;;17.10;62.40;;;;;;5072019;28;20032;-64
2023/05/21 03:26:32;;;;;;;8.38;3.92;;;17.10;62.50;;;;;;5072435;28;20033;-64
2023/05/21 03:28:58;;;;;;;8.10;4.28;;;17.10;62.50;;;;;;5072124;28;20071;-64
2023/05/21 03:31:25;;;;;;;8.75;4.50;;;17.10;62.60;;;;;;5070702;28;20027;-63
2023/05/21 03:34:04;;;;;;;11.43;4.65;;;17.10;62.70;;;;;;5066456;28;20024;-64
2023/05/21 03:36:31;;;;;;;7.63;4.20;;;17.10;62.80;;;;;;5073169;28;20051;-64
2023/05/21 03:38:57;;;;;;;7.35;4.15;;;17.10;62.80;;;;;;5071684;28;20024;-63
2023/05/21 03:41:23;;;;;;;7.50;4.32;;;17.10;62.80;;;;;;5070821;28;20027;-63
2023/05/21 03:43:53;;;;;;;7.75;4.20;;;17.00;62.80;;;;;;5070768;28;20492;-63
2023/05/21 03:46:22;;;;;;;7.75;4.40;;;17.10;63.00;;;;;;5072010;28;20028;-63
2023/05/21 03:49:16;;;;;;;8.32;3.97;;;17.10;63.00;;;;;;5071482;28;20024;-63
2023/05/21 03:51:42;;;;;;;8.43;4.28;;;17.00;63.00;;;;;;5071394;28;20040;-63
2023/05/21 03:54:11;;;;;;;8.25;4.88;;;17.00;63.10;;;;;;5065985;28;20112;-64
2023/05/21 03:56:38;;;;;;;9.00;4.90;;;17.00;63.20;;;;;;5070449;28;20047;-63
2023/05/21 03:59:04;;;;;;;7.65;4.28;;;17.00;63.30;;;;;;5068104;28;20020;-63
2023/05/21 04:01:31;;;;;;;9.93;4.40;;;17.00;63.40;;;;;;5068625;28;20357;-63
2023/05/21 04:03:58;;;;;;;9.55;4.75;;;17.00;63.40;;;;;;5062892;28;20505;-63
2023/05/21 04:06:25;;;;;;;9.63;4.75;;;17.00;63.40;;;;;;5051191;28;20021;-63
2023/05/21 04:08:51;;;;;;;8.88;4.22;;;17.00;63.50;;;;;;5060293;28;20021;-64
2023/05/21 04:11:17;;;;;;;7.88;4.30;;;17.00;63.50;;;;;;5053318;28;20025;-64
2023/05/21 04:13:42;;;;;;;8.18;4.78;;;17.00;63.60;;;;;;5058693;28;20024;-63
2023/05/21 04:16:08;;;;;;;8.43;4.57;;;17.00;63.60;;;;;;5069598;28;20468;-63
2023/05/21 04:18:34;;;;;;;8.45;4.53;;;17.00;63.70;;;;;;5060026;28;20020;-63
2023/05/21 04:21:01;;;;;;;7.50;4.45;;;17.00;63.70;;;;;;5066585;28;20024;-63
2023/05/21 04:23:27;;;;;;;6.93;4.30;;;17.00;63.80;;;;;;5060570;28;20043;-64
2023/05/21 04:25:54;;;;;;;9.35;4.40;;;17.00;63.80;;;;;;5072483;28;20056;-64
2023/05/21 04:28:22;;;;;;;7.95;4.75;;;17.00;63.80;;;;;;5064433;28;20082;-64
2023/05/21 04:30:49;;;;;;;8.77;4.70;;;17.00;63.80;;;;;;5065152;28;20027;-63
2023/05/21 04:33:19;;;;;;;9.07;4.68;;;17.00;63.80;;;;;;5065504;28;20021;-64
2023/05/21 04:35:48;;;;;;;8.10;4.75;;;17.00;63.90;;;;;;5061319;28;20032;-64
2023/05/21 04:38:18;;;;;;;8.93;4.80;;;17.10;64.10;;;;;;5043234;28;20458;-63
2023/05/21 04:40:49;;;;;;;8.60;4.50;;;17.10;64.00;;;;;;5068474;28;20021;-63
2023/05/21 04:43:16;;;;;;;7.93;4.63;;;17.00;64.10;;;;;;5066180;28;20567;-63
2023/05/21 04:45:43;;;;;;;8.38;4.78;;;17.10;64.10;;;;;;5060976;28;20028;-63
2023/05/21 04:48:09;;;;;;;7.97;4.63;;;17.10;64.20;;;;;;5066844;28;20023;-63
2023/05/21 04:50:34;;;;;;;8.50;4.00;;;17.10;64.20;;;;;;5064223;28;20031;-62
2023/05/21 04:53:02;;;;;;;8.10;4.45;;;17.10;64.20;;;;;;5060982;28;20025;-63
2023/05/21 04:55:28;;;;;;;9.32;4.65;;;17.10;64.30;;;;;;5069069;28;20017;-63
2023/05/21 04:57:53;;;;;;;8.02;4.43;;;17.20;64.40;;;;;;5051698;28;20032;-62
2023/05/21 05:00:19;;;;;;;8.00;4.22;;;17.20;64.40;;;;;;5055060;28;20047;-63
2023/05/21 05:02:45;;;;;;;9.00;4.70;;;17.10;64.30;;;;;;5053709;28;20416;-63
2023/05/21 05:05:11;;;;;;;9.43;5.03;;;17.20;64.50;;;;;;5072646;28;20025;-63
2023/05/21 05:07:37;;;;;;;7.95;4.43;;;17.20;64.60;;;;;;5059322;28;20085;-63
2023/05/21 05:10:03;;;;;;;7.88;4.40;;;17.20;64.60;;;;;;5076317;28;20057;-62
2023/05/21 05:12:31;;;;;;;7.65;4.25;;;17.20;64.70;;;;;;5061572;28;20108;-62
2023/05/21 05:14:57;;;;;;;9.32;4.80;;;17.20;64.80;;;;;;5067716;28;20055;-63
2023/05/21 05:17:23;;;;;;;10.13;4.63;;;17.20;64.80;;;;;;5072694;28;20494;-63
2023/05/21 05:19:49;;;;;;;8.23;4.32;;;17.20;64.90;;;;;;5071558;28;20077;-62
2023/05/21 05:22:15;;;;;;;9.00;4.30;;;17.20;64.80;;;;;;5074498;28;20044;-63
2023/05/21 05:24:41;;;;;;;7.88;4.50;;;17.20;64.80;;;;;;5070651;28;20398;-63
2023/05/21 05:27:07;;;;;;;8.05;4.60;;;17.30;65.00;;;;;;5065224;28;20070;-63
2023/05/21 05:29:33;;;;;;;7.57;4.05;;;17.30;65.10;;;;;;5075893;28;20372;-63
2023/05/21 05:31:58;;;;;;;8.98;4.15;;;17.30;65.10;;;;;;5075519;28;20420;-63
2023/05/21 05:34:24;;;;;;;8.18;4.80;;;17.30;65.10;;;;;;5058329;28;20051;-62
2023/05/21 05:36:50;;;;;;;8.73;4.20;;;17.30;65.10;;;;;;5073509;28;20073;-63
2023/05/21 05:39:16;;;;;;;9.63;4.53;;;17.30;65.10;;;;;;5066846;28;20021;-62
2023/05/21 05:41:42;;;;;;;9.88;5.07;;;17.30;65.20;;;;;;5074687;28;20025;-63
2023/05/21 05:44:08;;;;;;;8.10;4.47;;;17.40;65.30;;;;;;5073546;28;20032;-63
2023/05/21 05:46:36;;;;;;;7.78;4.63;;;17.40;65.20;;;;;;5058114;28;20024;-62
2023/05/21 05:49:02;;;;;;;9.10;4.43;;;17.50;65.30;;;;;;5069043;28;20032;-63
2023/05/21 05:51:28;;;;;;;8.73;4.50;;;17.40;65.20;;;;;;5072649;28;20017;-62
2023/05/21 05:53:54;;;;;;;9.80;4.47;;;17.40;65.30;;;;;;5072143;28;20400;-62
2023/05/21 05:56:21;;;;;;;9.43;5.15;;;17.40;65.40;;;;;;5068212;28;20020;-63
2023/05/21 05:58:46;;;;;;;10.27;4.82;;;17.40;65.30;;;;;;5063445;28;20048;-64
2023/05/21 06:01:15;;;;;;;8.07;4.57;;;17.50;65.40;;;;;;5065625;28;20025;-64
2023/05/21 06:03:41;;;;;;;10.38;5.10;;;17.50;65.40;;;;;;5064566;28;20024;-64
2023/05/21 06:06:15;;;;;;;8.30;4.70;;;17.60;65.40;;;;;;5068852;28;20029;-63
2023/05/21 06:08:41;;;;;;;10.10;5.18;;;17.60;65.30;;;;;;5072635;28;20020;-64
2023/05/21 06:11:08;;;;;;;7.40;4.55;;;17.60;65.30;;;;;;5060499;28;20346;-63
2023/05/21 06:13:34;;;;;;;8.82;4.50;;;17.60;65.30;;;;;;5056425;28;20028;-63
2023/05/21 06:16:02;;;;;;;7.57;4.47;;;17.60;65.30;;;;;;5066299;28;20025;-63
2023/05/21 06:18:28;;;;;;;8.05;4.70;;;17.70;65.40;;;;;;5066444;28;20082;-63
2023/05/21 06:20:53;;;;;;;11.38;5.43;;;17.70;65.30;;;;;;5073343;28;20041;-63
2023/05/21 06:23:21;;;;;;;8.70;4.47;;;17.70;65.20;;;;;;5074250;28;20024;-63
2023/05/21 06:25:48;;;;;;;8.82;4.72;;;17.80;65.20;;;;;;5071781;28;20489;-63
2023/05/21 06:28:14;;;;;;;8.45;4.72;;;17.90;65.10;;;;;;5059693;28;20021;-63
2023/05/21 06:30:40;;;;;;;10.00;4.80;;;18.00;65.10;;;;;;5052954;28;20024;-63
2023/05/21 06:33:06;;;;;;;9.98;5.03;;;18.00;64.90;;;;;;5062192;28;20147;-63
2023/05/21 06:35:35;;;;;;;7.22;4.20;;;18.10;64.90;;;;;;5057914;28;20031;-63
2023/05/21 06:38:02;;;;;;;9.18;5.13;;;18.10;64.80;;;;;;5075038;28;20032;-63
2023/05/21 06:40:27;;;;;;;7.95;4.82;;;18.20;64.70;;;;;;5066542;28;20025;-63
2023/05/21 06:42:56;;;;;;;9.73;5.10;;;18.30;64.60;;;;;;5079973;28;20029;-62
2023/05/21 06:45:40;;;;;;;8.43;4.68;;;18.30;64.40;;;;;;5073392;28;20048;-63
2023/05/21 06:48:26;;;;;;;8.70;4.60;;;18.40;64.30;;;;;;5072942;28;20036;-63
2023/05/21 06:50:53;;;;;;;9.13;4.70;;;18.50;64.10;;;;;;5073231;28;20419;-63
2023/05/21 06:53:18;;;;;;;7.95;4.40;;;18.70;63.90;;;;;;5057134;28;20115;-63
2023/05/21 06:55:44;;;;;;;9.35;5.18;;;18.90;63.60;;;;;;5072709;28;20117;-63
2023/05/21 06:58:14;;;;;;;8.48;5.18;;;19.10;63.10;;;;;;5073037;28;20020;-63
2023/05/21 07:00:40;;;;;;;7.82;4.28;;;19.30;62.70;;;;;;5072425;28;20338;-62
2023/05/21 07:03:06;;;;;;;8.38;5.13;;;19.50;62.10;;;;;;5073756;28;20037;-63
2023/05/21 07:05:32;;;;;;;8.70;5.05;;;19.70;61.80;;;;;;5072920;28;20112;-62
2023/05/21 07:07:57;;;;;;;8.05;5.05;;;19.90;62.20;;;;;;5073411;28;20029;-62
2023/05/21 07:10:23;;;;;;;9.85;5.82;;;20.10;61.00;;;;;;5072248;28;20434;-62
2023/05/21 07:12:49;;;;;;;9.98;5.43;;;20.30;60.70;;;;;;5056422;28;20025;-62
2023/05/21 07:15:15;;;;;;;8.52;5.10;;;20.50;60.50;;;;;;5073475;28;20420;-63
2023/05/21 07:17:41;;;;;;;8.48;5.15;;;20.60;60.20;;;;;;5072841;28;20032;-62
2023/05/21 07:20:08;;;;;;;8.88;5.03;;;20.80;60.00;;;;;;5068602;28;20479;-64
2023/05/21 07:22:38;;;;;;;8.40;4.60;;;20.90;59.60;;;;;;5058873;28;20052;-64
2023/05/21 07:25:05;;;;;;;10.07;5.00;;;21.00;59.30;;;;;;5059033;28;20044;-63
2023/05/21 07:27:31;;;;;;;8.82;5.10;;;21.00;59.00;;;;;;5059620;28;20031;-65
2023/05/21 07:29:58;;;;;;;9.10;4.65;;;21.00;59.00;;;;;;5065703;28;20393;-64
2023/05/21 07:32:25;;;;;;;9.00;4.90;;;21.10;58.90;;;;;;5054518;28;20090;-64
2023/05/21 07:34:51;;;;;;;9.25;4.78;;;21.10;58.80;;;;;;5066548;28;20103;-64
2023/05/21 07:37:18;;;;;;;9.27;5.32;;;21.10;58.80;;;;;;5067071;28;20025;-64
2023/05/21 07:39:44;;;;;;;9.20;5.10;;;21.20;58.60;;;;;;5073550;28;20028;-64
2023/05/21 07:42:11;;;;;;;9.98;5.13;;;21.20;58.40;;;;;;5072301;28;20020;-64
2023/05/21 07:44:37;;;;;;;7.88;5.15;;;21.20;58.20;;;;;;5072358;28;20031;-63
2023/05/21 07:47:03;;;;;;;9.25;5.03;;;21.20;58.20;;;;;;5062508;28;20036;-64
2023/05/21 07:49:29;;;;;;;8.75;5.03;;;21.20;58.20;;;;;;5071529;28;20123;-64
2023/05/21 07:51:55;;;;;;;9.23;5.05;;;21.30;58.10;;;;;;5071849;28;20454;-66
2023/05/21 07:54:21;;;;;;;10.63;5.32;;;21.40;58.00;;;;;;5072941;28;20032;-66
2023/05/21 07:56:47;;;;;;;9.60;5.38;;;21.40;57.90;;;;;;5071971;28;20075;-64
2023/05/21 07:59:26;;;;;;;10.88;5.20;;;21.40;57.60;;;;;;5050271;28;20466;-64
2023/05/21 08:01:52;;;;;;;9.02;5.60;;;21.50;57.50;;;;;;5063533;28;20108;-64
2023/05/21 08:04:18;;;;;;;8.43;5.13;;;21.60;57.40;;;;;;5055254;28;20385;-64
2023/05/21 08:06:44;;;;;;;7.90;4.40;;;21.60;57.30;;;;;;5060933;28;20064;-66
2023/05/21 08:09:11;;;;;;;7.60;4.78;;;21.70;57.30;;;;;;5055027;28;20053;-67
2023/05/21 08:11:37;;;;;;;8.93;4.95;;;21.80;57.30;;;;;;5068959;28;20024;-66
2023/05/21 08:14:03;;;;;;;9.02;5.00;;;21.80;57.20;;;;;;5068381;28;20028;-66
2023/05/21 08:16:29;;;;;;;10.30;5.60;;;21.90;57.10;;;;;;5055688;28;20108;-66
2023/05/21 08:18:55;;;;;;;8.07;5.22;;;22.10;57.00;;;;;;5070898;28;20136;-64
2023/05/21 08:21:21;;;;;;;9.43;5.30;;;22.30;56.90;;;;;;5068962;28;20060;-65
2023/05/21 08:23:47;;;;;;;8.38;4.70;;;22.40;56.70;;;;;;5072192;28;20078;-65
2023/05/21 08:26:15;;;;;;;8.43;5.07;;;22.50;56.50;;;;;;5071595;28;20044;-66
2023/05/21 08:28:41;;;;;;;9.27;5.07;;;22.70;56.00;;;;;;5064178;28;20041;-65
2023/05/21 08:31:07;;;;;;;8.60;5.18;;;22.90;55.70;;;;;;5061307;28;20472;-65
2023/05/21 08:33:37;;;;;;;9.77;5.88;;;23.20;55.40;;;;;;5051962;28;20028;-65
2023/05/21 08:36:05;;;;;;;8.47;5.50;;;23.30;55.10;;;;;;5073453;28;20058;-65
2023/05/21 08:38:36;;;;;;;9.43;5.93;;;23.40;54.70;;;;;;5073798;28;20457;-65
2023/05/21 08:41:12;;;;;;;9.55;5.18;;;23.50;54.40;;;;;;5065308;28;20301;-65
2023/05/21 08:43:38;;;;;;;10.40;5.65;;;23.60;54.20;;;;;;5070475;28;20055;-65
2023/05/21 08:46:06;;;;;;;8.20;5.43;;;23.70;53.90;;;;;;5076524;28;20060;-65
2023/05/21 08:48:37;;;;;;;10.13;5.88;;;23.70;53.80;;;;;;5075114;28;20028;-66
2023/05/21 08:51:03;;;;;;;9.00;5.45;;;23.80;53.70;;;;;;5067734;28;20044;-66
2023/05/21 08:53:35;;;;;;;9.20;5.35;;;23.90;53.60;;;;;;5068130;28;20021;-66
2023/05/21 08:56:04;;;;;;;9.18;5.40;;;24.00;53.50;;;;;;5076666;28;20052;-66
2023/05/21 08:58:44;;;;;;;9.07;5.18;;;24.10;53.30;;;;;;5060443;28;20131;-67
2023/05/21 09:01:11;;;;;;;9.13;5.35;;;24.20;53.10;;;;;;5075601;28;20115;-66
2023/05/21 09:03:42;;;;;;;10.15;6.00;;;24.30;53.00;;;;;;5074392;28;20048;-66
2023/05/21 09:06:15;;;;;;;9.10;5.80;;;24.40;52.70;;;;;;5075369;28;20051;-66
2023/05/21 09:08:47;;;;;;;10.35;5.90;;;24.40;52.50;;;;;;5059037;28;20346;-66
2023/05/21 09:11:41;;;;;;;10.35;5.45;;;24.30;52.40;;;;;;5073966;28;20112;-66
2023/05/21 09:14:08;;;;;;;10.30;6.55;;;24.20;52.60;;;;;;5075469;28;20047;-66
2023/05/21 09:16:53;;;;;;;10.40;6.15;;;24.20;52.60;;;;;;5075032;28;20361;-66
2023/05/21 09:19:21;;;;;;;9.88;6.30;;;24.10;52.80;;;;;;5070323;28;20039;-64
2023/05/21 09:21:49;;;;;;;9.00;5.75;;;24.10;52.80;;;;;;5062588;28;20381;-65
2023/05/21 09:24:23;;;;;;;8.52;5.35;;;24.20;52.90;;;;;;5071690;28;20111;-65
2023/05/21 09:26:50;;;;;;;7.97;5.13;;;24.20;52.80;;;;;;5074445;28;20043;-64
2023/05/21 09:29:16;;;;;;;10.63;5.32;;;24.30;52.80;;;;;;5064260;28;20501;-64
2023/05/21 09:31:44;;;;;;;10.18;6.25;;;24.40;52.70;;;;;;5063497;28;20194;-64
2023/05/21 09:34:12;;;;;;;9.25;6.03;;;24.50;52.40;;;;;;5076248;28;20123;-65
2023/05/21 09:36:39;;;;;;;9.48;5.93;;;24.60;52.30;;;;;;5066866;28;20033;-65
2023/05/21 09:39:05;;;;;;;9.65;6.15;;;24.80;52.10;;;;;;5072070;28;20085;-65
2023/05/21 09:41:35;;;;;;;9.57;5.85;;;25.00;51.80;;;;;;5073886;28;20063;-65
2023/05/21 09:44:02;;;;;;;;;;;25.10;51.60;;;;;;5058708;28;20322;-65
2023/05/21 09:46:39;;;;;;;9.52;5.65;;;25.30;51.60;;;;;;5074670;28;20249;-65
2023/05/21 09:49:20;;;;;;;10.00;6.28;;;25.30;51.30;;;;;;5060861;28;20032;-65
2023/05/21 09:51:46;;;;;;;10.95;6.05;;;25.40;51.10;;;;;;5073092;28;20017;-65
2023/05/21 09:54:12;;;;;;;8.75;5.75;;;25.60;51.10;;;;;;5071334;28;20318;-66
2023/05/21 09:56:38;;;;;;;9.45;6.75;;;25.70;50.90;;;;;;5048323;28;20012;-65
2023/05/21 09:59:04;;;;;;;10.98;6.55;;;25.80;50.70;;;;;;5070716;28;20071;-65
2023/05/21 10:01:34;;;;;;;9.75;6.25;;;25.80;50.60;;;;;;5073034;28;20056;-65
2023/05/21 10:04:06;;;;;;;9.48;6.55;;;25.80;50.50;;;;;;5069413;28;20085;-66
2023/05/21 10:06:40;;;;;;;11.90;7.00;;;25.90;50.40;;;;;;5069919;28;20036;-65
2023/05/21 10:09:09;;;;;;;11.77;7.50;;;25.80;50.50;;;;;;5075741;28;20315;-65
2023/05/21 10:11:35;;;;;;;12.27;8.15;;;25.70;50.50;;;;;;5075491;28;20445;-65
2023/05/21 10:14:13;;;;;;;12.18;8.13;;;25.70;50.30;;;;;;5074140;28;20322;-65
2023/05/21 10:16:41;;;;;;;11.20;7.70;;;25.80;50.30;;;;;;5073659;28;20024;-66
2023/05/21 10:19:09;;;;;;;11.27;8.65;;;25.90;50.20;;;;;;5076517;28;20036;-65
2023/05/21 10:21:35;;;;;;;12.30;8.32;;;25.90;50.10;;;;;;5075237;28;20036;-65
2023/05/21 10:24:03;;;;;;;12.30;9.00;;;25.90;50.00;;;;;;5065240;28;20390;-65
2023/05/21 10:26:29;;;;;;;10.75;7.93;;;26.00;49.90;;;;;;5066387;28;20040;-65
2023/05/21 10:28:59;;;;;;;13.13;8.18;;;26.10;49.70;;;;;;5069203;28;20033;-66
2023/05/21 10:31:26;;;;;;;11.57;8.35;;;26.20;49.60;;;;;;5061532;28;20025;-66
2023/05/21 10:33:55;;;;;;;11.73;8.55;;;26.20;49.40;;;;;;5073758;28;20090;-66
2023/05/21 10:36:24;;;;;;;12.55;7.72;;;26.30;49.30;;;;;;5067262;28;20042;-66
2023/05/21 10:38:50;;;;;;;11.85;8.32;;;26.40;49.20;;;;;;5074268;28;20028;-66
2023/05/21 10:41:18;;;;;;;12.38;8.55;;;26.50;49.20;;;;;;5068246;28;20095;-65
2023/05/21 10:43:44;;;;;;;11.60;7.88;;;26.50;49.30;;;;;;5064477;28;20024;-66
2023/05/21 10:46:44;;;;;;;12.93;8.30;;;26.50;49.30;;;;;;5064744;28;20468;-66
2023/05/21 10:49:25;;;;;;;11.93;7.73;;;26.60;49.40;;;;;;5074207;28;20468;-66
2023/05/21 10:52:21;;;;;;;13.18;7.93;;;26.60;49.30;;;;;;5055453;28;20036;-66
2023/05/21 10:54:56;;;;;;;21.58;7.78;;;26.60;49.20;;;;;;5062840;28;20353;-66
2023/05/21 10:57:49;;;;;;;12.43;7.75;;;26.70;49.20;;;;;;5073971;28;20078;-65
2023/05/21 11:00:16;;;;;;;13.18;8.30;;;26.70;48.90;;;;;;5066784;28;20350;-65
2023/05/21 11:02:44;;;;;;;13.43;8.70;;;26.80;48.80;;;;;;5072131;28;20070;-65
2023/05/21 11:05:10;;;;;;;13.45;8.30;;;26.80;48.50;;;;;;5067812;28;20025;-64
2023/05/21 11:07:55;;;;;;;13.18;7.63;;;26.70;48.30;;;;;;5063842;28;20441;-64
2023/05/21 11:10:39;;;;;;;13.05;8.30;;;26.80;48.70;;;;;;5069286;28;20033;-64
2023/05/21 11:13:12;;;;;;;11.57;7.53;;;26.80;48.50;;;;;;5057567;28;20025;-65
2023/05/21 11:16:13;;;;;;;10.38;7.78;;;26.80;48.80;;;;;;5051595;28;20048;-64
2023/05/21 11:18:38;;;;;;;11.63;6.80;;;26.90;48.60;;;;;;5051498;28;20109;-65
2023/05/21 11:21:13;;;;;;;12.90;7.15;;;26.90;48.70;;;;;;5054621;28;20037;-65
2023/05/21 11:23:50;;;;;;;11.27;7.13;;;27.00;48.40;;;;;;5056253;28;20361;-65
2023/05/21 11:26:18;;;;;;;10.35;7.03;;;27.00;48.30;;;;;;5064909;28;20110;-65
2023/05/21 11:28:43;;;;;;;9.60;7.03;;;27.00;48.40;;;;;;5062359;28;20021;-65
2023/05/21 11:31:23;;;;;;;10.05;7.60;;;27.00;48.50;;;;;;5054563;28;20124;-65
2023/05/21 11:34:07;;;;;;;9.27;6.17;;;27.10;48.40;;;;;;5071872;28;20028;-66
2023/05/21 11:36:36;;;;;;;12.07;7.45;;;27.10;48.40;;;;;;5069539;28;20087;-66
2023/05/21 11:39:21;;;;;;;11.55;8.05;;;27.10;48.40;;;;;;5071699;28;20044;-65
2023/05/21 11:42:01;;;;;;;9.90;6.78;;;27.10;48.00;;;;;;5068547;28;20119;-65
2023/05/21 11:44:41;;;;;;;10.80;6.65;;;27.00;48.20;;;;;;5073273;28;20039;-65
2023/05/21 11:47:08;;;;;;;12.30;7.07;;;27.00;48.40;;;;;;5054474;28;20081;-66
2023/05/21 11:49:36;;;;;;;10.82;6.45;;;27.00;48.50;;;;;;5067650;28;20025;-65
2023/05/21 11:52:04;;;;;;;10.13;6.78;;;27.00;48.70;;;;;;5060499;28;20096;-65
2023/05/21 11:54:32;;;;;;;10.93;7.35;;;27.00;48.70;;;;;;5069897;28;20112;-65
2023/05/21 11:57:02;;;;;;;11.20;7.55;;;27.00;48.60;;;;;;5056376;28;20024;-65
2023/05/21 11:59:28;;;;;;;10.20;6.88;;;26.90;48.50;;;;;;5054115;28;20404;-65
2023/05/21 12:01:58;;;;;;;11.10;6.93;;;26.90;48.80;;;;;;5060687;28;20025;-65
2023/05/21 12:04:28;;;;;;;10.23;7.32;;;26.80;49.00;;;;;;5059046;28;20105;-65
2023/05/21 12:06:57;;;;;;;10.73;7.57;;;26.80;49.20;;;;;;5061063;28;20086;-66
2023/05/21 12:09:23;;;;;;;11.20;7.35;;;26.80;49.40;;;;;;5065530;28;20021;-66
2023/05/21 12:11:50;;;;;;;10.13;7.55;;;26.70;49.30;;;;;;5060285;28;20031;-65
2023/05/21 12:14:16;;;;;;;10.80;6.80;;;26.70;49.50;;;;;;5058983;28;20033;-65
2023/05/21 12:16:42;;;;;;;10.57;6.95;;;26.60;49.60;;;;;;5053875;28;20021;-66
2023/05/21 12:19:08;;;;;;;9.80;7.03;;;26.60;49.60;;;;;;5063930;28;20115;-65
2023/05/21 12:21:35;;;;;;;11.82;7.65;;;26.50;49.70;;;;;;5049987;28;20052;-65
2023/05/21 12:24:01;;;;;;;9.52;6.63;;;26.40;49.80;;;;;;5055880;28;20033;-65
2023/05/21 12:26:28;;;;;;;10.50;6.63;;;26.50;50.10;;;;;;5058533;28;20139;-66
2023/05/21 12:28:54;;;;;;;11.57;7.32;;;26.40;50.00;;;;;;5087167;28;20137;-66
2023/05/21 12:31:22;;;;;;;10.90;7.30;;;26.30;50.00;;;;;;5062557;28;20478;-66
2023/05/21 12:33:49;;;;;;;9.52;7.15;;;26.30;50.10;;;;;;5084766;28;20045;-66
2023/05/21 12:36:45;;;;;;;11.93;7.65;;;26.20;50.20;;;;;;5063547;28;20445;-66
2023/05/21 12:39:10;;;;;;;12.55;7.30;;;26.20;50.30;;;;;;5057601;28;20048;-65
2023/05/21 12:41:36;;;;;;;11.70;7.57;;;26.10;50.40;;;;;;5071520;28;20094;-65
2023/05/21 12:44:04;;;;;;;10.73;7.43;;;26.10;50.50;;;;;;5069524;28;20028;-64
2023/05/21 12:46:30;;;;;;;10.65;7.22;;;26.00;50.60;;;;;;5063649;28;20051;-66
2023/05/21 12:48:56;;;;;;;10.75;7.07;;;26.00;50.60;;;;;;5069311;28;20096;-65
2023/05/21 12:51:21;;;;;;;11.85;8.02;;;26.00;50.90;;;;;;5059090;28;20128;-65
2023/05/21 12:53:47;;;;;;;11.77;7.93;;;26.00;50.80;;;;;;5065088;28;20032;-64